Time;durP1;ratioP1;P1;durP2;ratioP2;P2;SDS_P1;SDS_P2;PMS_P1;PMS_P2;Temp;Humidity;BMP_temperature;BMP_pressure;BME280_temperature;BME280_humidity;BME280_pressure;Samples;Min_cycle;Max_cycle;Signal;HPM_P1;HPM_P2
2023/12/02 00:03:56;;;;;;;78.00;46.40;;;;;;;-0.69;86.07;97605.60;226500;1272;22589;-73
2023/12/02 00:09:02;;;;;;;70.60;42.60;;;;;;;-0.69;86.02;97594.72;226384;1266;24362;-73
2023/12/02 00:14:05;;;;;;;74.30;42.20;;;;;;;-0.74;85.61;97590.90;226284;1275;25510;-74
2023/12/02 00:19:07;;;;;;;73.00;41.30;;;;;;;-0.80;86.16;97583.00;226306;1275;24227;-75
2023/12/02 00:24:10;;;;;;;69.20;38.40;;;;;;;-0.83;86.02;97579.96;226319;1275;22534;-73
2023/12/02 00:29:12;;;;;;;81.10;44.40;;;;;;;-0.88;85.93;97572.23;226361;1273;23017;-73
2023/12/02 00:34:14;;;;;;;70.70;40.60;;;;;;;-0.92;86.28;97560.98;226348;1275;22549;-75
2023/12/02 00:39:16;;;;;;;67.80;39.30;;;;;;;-0.93;86.12;97557.98;226358;1275;22547;-75
2023/12/02 00:44:19;;;;;;;61.00;36.80;;;;;;;-0.97;86.06;97574.56;226278;1275;22539;-73
2023/12/02 00:49:22;;;;;;;56.60;32.60;;;;;;;-0.97;86.25;97576.86;226398;1266;22529;-74
2023/12/02 00:54:24;;;;;;;57.30;35.00;;;;;;;-1.00;86.41;97573.32;226433;1269;22611;-74
2023/12/02 00:59:27;;;;;;;52.50;30.90;;;;;;;-1.00;86.16;97573.13;226381;1273;22556;-75
2023/12/02 01:04:29;;;;;;;55.90;34.00;;;;;;;-0.98;86.14;97573.50;226299;1271;22551;-75
2023/12/02 01:09:31;;;;;;;50.30;29.00;;;;;;;-1.01;86.38;97556.81;226256;1275;24292;-73
2023/12/02 01:14:33;;;;;;;57.60;35.60;;;;;;;-1.04;86.17;97576.46;226248;1273;22603;-74
2023/12/02 01:19:35;;;;;;;57.90;32.00;;;;;;;-1.03;86.10;97537.02;226426;1256;22541;-73
2023/12/02 01:24:37;;;;;;;59.50;35.10;;;;;;;-1.06;86.50;97523.27;226347;1273;22543;-74
2023/12/02 01:29:40;;;;;;;58.60;35.10;;;;;;;-1.09;86.26;97533.04;226379;1273;22553;-74
2023/12/02 01:34:42;;;;;;;62.40;36.70;;;;;;;-1.07;86.42;97532.73;226538;1273;22685;-74
2023/12/02 01:39:44;;;;;;;66.40;38.00;;;;;;;-1.08;86.56;97512.20;226307;1275;22713;-74
2023/12/02 01:44:46;;;;;;;54.80;32.50;;;;;;;-1.09;86.56;97502.27;226346;1275;22756;-73
2023/12/02 01:49:50;;;;;;;58.70;33.40;;;;;;;-1.14;86.12;97508.80;226237;1275;24302;-73
2023/12/02 01:54:53;;;;;;;64.10;38.50;;;;;;;-1.13;86.41;97528.95;226355;1275;22600;-73
2023/12/02 01:59:55;;;;;;;48.60;28.80;;;;;;;-1.12;86.33;97539.73;226350;1265;24610;-74
2023/12/02 02:04:57;;;;;;;64.20;36.60;;;;;;;-1.13;86.49;97527.38;226339;1273;22599;-76
2023/12/02 02:10:00;;;;;;;59.30;35.20;;;;;;;-1.13;86.59;97512.87;226373;1275;22536;-73
2023/12/02 02:15:03;;;;;;;58.80;34.80;;;;;;;-1.14;86.52;97525.39;226301;1273;22559;-73
2023/12/02 02:20:06;;;;;;;58.40;35.20;;;;;;;-1.12;86.35;97521.27;226504;1275;22580;-72
2023/12/02 02:25:08;;;;;;;57.30;32.90;;;;;;;-1.10;86.46;97527.42;226428;1273;24210;-74
2023/12/02 02:30:10;;;;;;;53.60;33.00;;;;;;;-1.08;86.40;97533.85;226402;1275;22554;-74
2023/12/02 02:35:13;;;;;;;52.10;30.50;;;;;;;-1.09;86.46;97518.23;226372;1274;22647;-74
2023/12/02 02:40:15;;;;;;;47.80;27.80;;;;;;;-1.14;86.44;97516.23;226369;1273;22540;-72
2023/12/02 02:45:17;;;;;;;47.00;28.60;;;;;;;-1.16;86.27;97514.70;226313;1275;22574;-74
2023/12/02 02:50:20;;;;;;;53.00;31.00;;;;;;;-1.17;86.51;97528.48;226300;1275;22537;-72
2023/12/02 02:55:22;;;;;;;43.80;27.40;;;;;;;-1.17;86.79;97524.69;226306;1275;22472;-75
2023/12/02 03:00:24;;;;;;;48.70;28.20;;;;;;;-1.20;86.15;97493.69;226326;1275;22726;-73
2023/12/02 03:05:26;;;;;;;38.70;23.20;;;;;;;-1.27;85.95;97518.21;226372;1272;22546;-73
2023/12/02 03:10:29;;;;;;;34.00;19.00;;;;;;;-1.33;86.34;97521.06;226305;1275;22578;-74
2023/12/02 03:15:31;;;;;;;41.40;23.20;;;;;;;-1.35;86.39;97511.27;226348;1274;22563;-75
2023/12/02 03:20:33;;;;;;;37.60;22.30;;;;;;;-1.39;86.12;97531.42;226274;1275;22575;-73
2023/12/02 03:25:35;;;;;;;33.60;20.20;;;;;;;-1.39;86.69;97527.99;226290;1274;22546;-73
2023/12/02 03:30:37;;;;;;;33.60;20.90;;;;;;;-1.40;86.61;97513.19;226398;1269;22646;-74
2023/12/02 03:35:39;;;;;;;34.30;18.90;;;;;;;-1.44;86.17;97507.73;226333;1273;22536;-72
2023/12/02 03:40:41;;;;;;;36.90;21.60;;;;;;;-1.44;86.37;97510.31;226341;1273;22537;-72
2023/12/02 03:45:43;;;;;;;34.20;20.80;;;;;;;-1.43;86.48;97510.55;226223;1267;22560;-73
2023/12/02 03:50:45;;;;;;;33.70;20.70;;;;;;;-1.42;86.54;97503.38;226287;1273;22553;-73
2023/12/02 03:55:47;;;;;;;35.40;20.60;;;;;;;-1.43;86.35;97516.70;226315;1271;22589;-74
2023/12/02 04:00:49;;;;;;;36.70;21.10;;;;;;;-1.46;86.17;97513.89;226291;1275;24247;-75
2023/12/02 04:05:51;;;;;;;34.70;21.40;;;;;;;-1.46;86.62;97494.07;226317;1273;22548;-73
2023/12/02 04:10:54;;;;;;;33.40;20.10;;;;;;;-1.48;86.26;97485.79;226259;1275;22712;-74
2023/12/02 04:15:56;;;;;;;25.20;13.80;;;;;;;-1.47;86.48;97470.86;226409;1273;22676;-74
2023/12/02 04:21:00;;;;;;;33.50;20.50;;;;;;;-1.49;86.07;97488.70;226394;1275;22554;-74
2023/12/02 04:26:02;;;;;;;33.20;19.10;;;;;;;-1.52;86.46;97496.87;226391;1273;22655;-74
2023/12/02 04:31:05;;;;;;;31.70;19.10;;;;;;;-1.51;86.45;97484.88;226282;1275;22602;-75
2023/12/02 04:36:09;;;;;;;32.70;18.90;;;;;;;-1.50;86.38;97497.60;226303;1271;22547;-75
2023/12/02 04:41:11;;;;;;;28.20;18.30;;;;;;;-1.49;86.21;97481.25;226508;1275;22544;-74
2023/12/02 04:46:13;;;;;;;27.70;15.60;;;;;;;-1.48;86.14;97472.55;226449;1273;23537;-76
2023/12/02 04:51:15;;;;;;;23.10;13.40;;;;;;;-1.50;86.03;97471.52;226297;1272;24896;-73
2023/12/02 04:56:18;;;;;;;24.20;14.70;;;;;;;-1.52;85.70;97478.27;226478;1272;22955;-74
2023/12/02 05:01:20;;;;;;;21.40;13.80;;;;;;;-1.54;85.97;97492.14;226265;1275;22700;-75
2023/12/02 05:06:24;;;;;;;20.70;13.00;;;;;;;-1.54;86.31;97481.08;226371;1275;24218;-75
2023/12/02 05:11:27;;;;;;;18.40;10.70;;;;;;;-1.56;86.11;97460.00;226288;1267;22547;-75
2023/12/02 05:16:29;;;;;;;19.50;11.70;;;;;;;-1.59;86.07;97450.31;226107;1275;22554;-74
2023/12/02 05:21:31;;;;;;;14.40;8.00;;;;;;;-1.62;86.13;97457.81;226343;1273;22534;-75
2023/12/02 05:26:34;;;;;;;17.50;11.10;;;;;;;-1.59;86.33;97477.89;226472;1269;22567;-75
2023/12/02 05:31:39;;;;;;;16.30;10.20;;;;;;;-1.57;86.17;97484.98;226501;1275;22541;-76
2023/12/02 05:36:45;;;;;;;15.30;10.40;;;;;;;-1.59;86.03;97464.21;226268;1272;24420;-74
2023/12/02 05:41:48;;;;;;;11.50;8.30;;;;;;;-1.60;86.10;97469.04;226326;1275;22693;-73
2023/12/02 05:46:51;;;;;;;12.30;8.10;;;;;;;-1.59;85.80;97469.48;226275;1275;22576;-74
2023/12/02 05:51:53;;;;;;;14.00;8.80;;;;;;;-1.62;85.92;97461.73;226367;1269;22555;-73
2023/12/02 05:56:56;;;;;;;13.70;8.80;;;;;;;-1.64;85.92;97459.25;226772;1273;22547;-73
2023/12/02 06:01:59;;;;;;;11.60;7.40;;;;;;;-1.66;85.64;97445.66;226263;1275;22532;-74
2023/12/02 06:07:02;;;;;;;11.30;7.60;;;;;;;-1.68;85.60;97453.05;226390;1273;22611;-74
2023/12/02 06:12:05;;;;;;;12.80;8.10;;;;;;;-1.69;85.57;97452.80;226880;1275;22550;-73
2023/12/02 06:17:08;;;;;;;15.10;9.30;;;;;;;-1.69;85.76;97454.49;226216;1253;22545;-73
2023/12/02 06:22:11;;;;;;;18.10;10.70;;;;;;;-1.69;85.64;97455.91;226248;1270;22591;-73
2023/12/02 06:27:13;;;;;;;11.60;7.40;;;;;;;-1.67;85.68;97454.81;226398;1275;22545;-76
2023/12/02 06:32:15;;;;;;;13.10;9.00;;;;;;;-1.67;85.61;97468.33;226178;1275;25432;-75
2023/12/02 06:37:17;;;;;;;17.90;10.30;;;;;;;-1.68;85.48;97475.50;226318;1273;22566;-76
2023/12/02 06:42:19;;;;;;;14.40;8.40;;;;;;;-1.68;85.63;97474.08;226199;1275;22574;-75
2023/12/02 06:47:22;;;;;;;14.10;9.20;;;;;;;-1.70;85.26;97478.10;226326;1273;25518;-76
2023/12/02 06:52:24;;;;;;;15.60;8.40;;;;;;;-1.74;85.21;97477.59;226345;1275;22596;-75
2023/12/02 06:57:26;;;;;;;13.90;7.90;;;;;;;-1.77;85.40;97469.37;226306;1273;22532;-77
2023/12/02 07:02:29;;;;;;;14.60;8.80;;;;;;;-1.82;84.87;97471.09;226262;1272;22603;-75
2023/12/02 07:07:31;;;;;;;17.10;9.20;;;;;;;-1.87;85.01;97472.90;226199;1275;24604;-75
2023/12/02 07:12:33;;;;;;;15.00;9.00;;;;;;;-1.88;85.68;97469.55;226164;1275;22569;-76
2023/12/02 07:17:35;;;;;;;12.60;7.90;;;;;;;-1.90;85.52;97464.73;226304;1273;22540;-76
2023/12/02 07:22:38;;;;;;;13.30;8.00;;;;;;;-1.94;85.45;97506.88;226087;1275;22580;-77
2023/12/02 07:27:39;;;;;;;14.20;8.90;;;;;;;-1.96;85.33;97539.00;226266;1269;25537;-76
2023/12/02 07:32:46;;;;;;;15.80;8.70;;;;;;;-1.94;85.06;97542.11;226378;1272;22548;-75
2023/12/02 07:37:49;;;;;;;14.20;7.90;;;;;;;-1.91;85.20;97532.52;226361;1269;22541;-75
2023/12/02 07:42:52;;;;;;;16.20;8.00;;;;;;;-1.79;85.66;97532.24;226364;1273;25512;-75
2023/12/02 07:47:54;;;;;;;13.30;7.70;;;;;;;-1.64;85.38;97510.63;226107;1275;24992;-76
2023/12/02 07:52:56;;;;;;;10.00;6.50;;;;;;;-1.56;85.53;97512.64;225992;1266;22543;-76
2023/12/02 07:57:58;;;;;;;11.70;7.10;;;;;;;-1.52;84.74;97509.85;225882;1259;22576;-75
2023/12/02 08:03:01;;;;;;;9.70;6.30;;;;;;;-1.45;84.85;97511.30;226014;1273;23007;-76
2023/12/02 08:08:03;;;;;;;9.00;5.30;;;;;;;-1.44;84.88;97509.44;225821;1272;22554;-76
2023/12/02 08:13:10;;;;;;;12.50;7.10;;;;;;;-1.50;84.31;97514.20;225801;1275;24357;-78
2023/12/02 08:18:12;;;;;;;10.10;6.20;;;;;;;-1.59;84.08;97501.20;225754;1272;23016;-77
2023/12/02 08:23:15;;;;;;;13.80;8.00;;;;;;;-1.70;84.32;97513.63;225619;1275;24355;-79
2023/12/02 08:28:18;;;;;;;20.20;9.60;;;;;;;-1.81;84.13;97510.45;225591;1272;22546;-78
2023/12/02 08:33:21;;;;;;;17.10;10.30;;;;;;;-1.84;84.14;97523.90;225706;1274;23109;-77
2023/12/02 08:38:23;;;;;;;17.30;11.00;;;;;;;-1.87;84.47;97514.19;225752;1254;25303;-77
2023/12/02 08:43:25;;;;;;;21.10;11.90;;;;;;;-1.88;84.15;97488.54;225734;1275;27192;-78
2023/12/02 08:48:28;;;;;;;20.40;10.60;;;;;;;-1.87;83.98;97496.55;225805;1256;22587;-76
2023/12/02 08:53:30;;;;;;;18.50;10.80;;;;;;;-1.85;83.84;97539.52;226139;1269;25688;-76
2023/12/02 08:58:32;;;;;;;18.70;10.40;;;;;;;-1.77;84.00;97546.58;225804;1275;24704;-77
2023/12/02 09:03:35;;;;;;;15.10;9.60;;;;;;;-1.73;83.87;97535.11;225902;1269;22936;-76
2023/12/02 09:08:37;;;;;;;17.40;9.90;;;;;;;-1.66;83.66;97565.26;225870;1275;22553;-77
2023/12/02 09:13:40;;;;;;;18.90;10.90;;;;;;;-1.57;83.75;97554.32;225851;1275;25248;-76
2023/12/02 09:18:43;;;;;;;21.80;11.60;;;;;;;-1.51;83.58;97524.09;225998;1253;22840;-76
2023/12/02 09:23:49;;;;;;;19.50;11.10;;;;;;;-1.40;83.71;97519.75;226009;1265;22541;-76
2023/12/02 09:28:52;;;;;;;19.90;11.40;;;;;;;-1.22;83.50;97526.04;225770;1275;22544;-76
2023/12/02 09:33:58;;;;;;;20.70;12.10;;;;;;;-1.07;83.38;97518.02;225852;1275;23034;-84
2023/12/02 09:39:20;;;;;;;24.60;13.90;;;;;;;-1.05;82.74;97509.84;226161;1274;22557;-77
2023/12/02 09:44:47;;;;;;;27.40;14.00;;;;;;;-1.14;82.71;97520.37;226066;1269;22564;-77
2023/12/02 09:50:09;;;;;;;28.90;15.70;;;;;;;-1.23;82.88;97534.27;225845;1272;22548;-77
2023/12/02 09:55:37;;;;;;;26.00;13.10;;;;;;;-1.28;82.94;97527.44;225794;1253;22560;-75
2023/12/02 10:00:52;;;;;;;22.30;14.60;;;;;;;-1.30;82.81;97554.22;225846;1272;23030;-75
2023/12/02 10:06:23;;;;;;;22.50;13.80;;;;;;;-1.27;82.71;97553.48;225649;1272;23217;-74
2023/12/02 10:12:10;;;;;;;20.40;12.10;;;;;;;-1.31;82.97;97521.55;225735;1275;22739;-74
2023/12/02 10:17:14;;;;;;;20.70;11.90;;;;;;;-1.34;82.46;97503.14;224804;1275;22648;-74
2023/12/02 10:22:19;;;;;;;19.60;11.50;;;;;;;-1.31;82.83;97493.00;225428;1256;22576;-75
2023/12/02 10:27:24;;;;;;;22.30;12.10;;;;;;;-1.22;82.89;97484.23;225770;1275;22645;-75
2023/12/02 10:32:38;;;;;;;17.00;10.20;;;;;;;-1.10;82.86;97503.09;225758;1254;22952;-73
2023/12/02 10:37:41;;;;;;;19.70;10.40;;;;;;;-1.00;82.66;97514.27;225714;1271;23040;-74
2023/12/02 10:42:56;;;;;;;17.20;10.30;;;;;;;-0.92;82.83;97507.23;225573;1275;22623;-74
2023/12/02 10:47:59;;;;;;;16.80;9.40;;;;;;;-0.84;82.65;97503.34;225867;1256;22584;-75
2023/12/02 10:53:04;;;;;;;16.20;10.70;;;;;;;-0.84;82.21;97481.95;225779;1253;23074;-74
2023/12/02 10:58:07;;;;;;;17.50;11.60;;;;;;;-0.84;82.53;97487.27;225948;1254;22950;-73
2023/12/02 11:03:27;;;;;;;19.70;12.50;;;;;;;-0.80;82.43;97486.20;225846;1274;23632;-76
2023/12/02 11:08:56;;;;;;;20.30;12.60;;;;;;;-0.67;82.45;97476.98;226048;1273;22581;-74
2023/12/02 11:14:01;;;;;;;19.60;12.30;;;;;;;-0.51;82.80;97474.71;225938;1267;22540;-75
2023/12/02 11:19:39;;;;;;;23.60;13.30;;;;;;;-0.44;82.34;97474.16;225959;1268;25936;-76
2023/12/02 11:25:27;;;;;;;20.60;13.30;;;;;;;-0.51;82.34;97474.67;225811;1256;188307;-77
2023/12/02 11:30:50;;;;;;;23.60;14.80;;;;;;;-0.54;82.70;97477.10;224684;1269;24421;-75
2023/12/02 11:36:11;;;;;;;23.30;14.40;;;;;;;-0.52;82.45;97490.16;225699;1271;22658;-75
2023/12/02 11:41:41;;;;;;;23.20;14.80;;;;;;;-0.56;82.24;97479.00;226150;1256;22542;-73
2023/12/02 11:47:25;;;;;;;23.20;14.40;;;;;;;-0.59;82.00;97475.86;225781;1255;22551;-77
2023/12/02 11:53:07;;;;;;;22.00;13.90;;;;;;;-0.64;82.29;97460.92;226064;1270;22950;-79
2023/12/02 11:58:35;;;;;;;22.90;14.30;;;;;;;-0.71;82.25;97451.23;225695;1272;23105;-78
2023/12/02 12:03:41;;;;;;;22.70;14.50;;;;;;;-0.82;82.28;97444.34;225548;1275;25504;-77
2023/12/02 12:09:19;;;;;;;23.40;14.70;;;;;;;-0.96;82.19;97454.89;225668;1272;25924;-78
2023/12/02 12:14:22;;;;;;;22.30;13.50;;;;;;;-1.06;82.52;97454.83;225717;1272;22545;-77
2023/12/02 12:19:25;;;;;;;27.20;15.90;;;;;;;-1.12;82.49;97459.89;225656;1272;22579;-79
2023/12/02 12:24:28;;;;;;;25.20;16.00;;;;;;;-1.18;82.85;97462.70;225945;1275;24193;-77
2023/12/02 12:29:30;;;;;;;27.30;16.20;;;;;;;-1.24;83.05;97471.63;225871;1275;22957;-78
2023/12/02 12:34:32;;;;;;;23.60;14.50;;;;;;;-1.30;82.80;97456.98;225892;1259;22577;-78
2023/12/02 12:39:39;;;;;;;24.30;14.50;;;;;;;-1.35;83.09;97433.27;226036;1275;25403;-76
2023/12/02 12:44:41;;;;;;;24.60;15.60;;;;;;;-1.37;83.32;97436.80;226052;1275;22548;-76
2023/12/02 12:49:44;;;;;;;25.40;16.00;;;;;;;-1.38;83.31;97458.30;226112;1275;22536;-76
2023/12/02 12:54:57;;;;;;;23.60;15.90;;;;;;;-1.40;83.40;97469.17;226182;1276;25287;-77
2023/12/02 13:00:03;;;;;;;28.20;17.00;;;;;;;-1.45;83.18;97481.74;226184;1275;22704;-76
2023/12/02 13:05:08;;;;;;;25.30;15.50;;;;;;;-1.49;83.71;97473.83;226078;1275;22537;-78
2023/12/02 13:10:13;;;;;;;27.10;17.20;;;;;;;-1.52;84.11;97478.61;226255;1272;22546;-78
2023/12/02 13:15:19;;;;;;;27.30;16.30;;;;;;;-1.56;83.99;97466.41;226154;1275;24598;-79
2023/12/02 13:20:22;;;;;;;24.30;15.90;;;;;;;-1.61;83.98;97450.52;226002;1275;23043;-79
2023/12/02 13:25:25;;;;;;;27.20;16.20;;;;;;;-1.67;84.75;97473.70;226055;1275;24269;-79
2023/12/02 13:30:29;;;;;;;28.50;18.60;;;;;;;-1.71;84.81;97463.81;226104;1272;22532;-79
2023/12/02 13:35:35;;;;;;;30.00;18.10;;;;;;;-1.73;85.12;97455.73;226102;1275;22574;-80
2023/12/02 13:40:47;;;;;;;28.40;18.30;;;;;;;-1.76;85.27;97455.52;226208;1275;22558;-81
2023/12/02 13:45:54;;;;;;;32.40;19.50;;;;;;;-1.77;85.17;97476.48;226173;1273;22543;-82
2023/12/02 13:51:20;;;;;;;30.10;18.70;;;;;;;-1.79;85.33;97487.86;226176;1272;22552;-81
2023/12/02 13:56:27;;;;;;;30.10;18.60;;;;;;;-1.79;85.80;97472.34;226027;1275;22541;-81
2023/12/02 14:01:45;;;;;;;29.90;18.90;;;;;;;-1.82;85.58;97469.52;226288;1273;22554;-81
2023/12/02 14:07:17;;;;;;;31.90;18.50;;;;;;;-1.86;85.33;97491.08;226173;1275;22549;-82
2023/12/02 14:12:45;;;;;;;31.30;19.00;;;;;;;-1.86;85.87;97508.08;226093;1275;22569;-82
2023/12/02 14:18:08;;;;;;;32.60;19.60;;;;;;;-1.87;85.92;97517.64;226320;1273;22939;-82
2023/12/02 14:23:25;;;;;;;31.80;18.60;;;;;;;-1.89;85.79;97515.84;226359;1272;22538;-81
2023/12/02 14:28:59;;;;;;;32.40;19.70;;;;;;;-1.91;85.79;97491.19;226169;1275;22724;-82
2023/12/02 14:34:23;;;;;;;33.50;19.90;;;;;;;-1.92;86.04;97518.27;226041;1275;22567;-81
2023/12/02 14:39:52;;;;;;;35.30;20.30;;;;;;;-1.93;86.29;97514.55;226261;1273;22550;-81
2023/12/02 14:44:55;;;;;;;32.90;19.80;;;;;;;-1.93;86.34;97498.99;226201;1275;22537;-82
2023/12/02 14:49:58;;;;;;;31.40;18.30;;;;;;;-1.95;86.07;97482.81;226141;1275;22548;-82
2023/12/02 14:55:03;;;;;;;29.90;17.90;;;;;;;-1.95;86.33;97504.60;226209;1273;22578;-82
2023/12/02 15:00:14;;;;;;;28.90;16.90;;;;;;;-1.96;86.24;97511.05;226130;1273;22551;-82
2023/12/02 15:05:16;;;;;;;29.30;17.80;;;;;;;-1.97;86.42;97526.11;226595;1272;22640;-81
2023/12/02 15:10:20;;;;;;;31.70;18.90;;;;;;;-1.97;86.54;97537.53;226216;1273;22744;-82
2023/12/02 15:15:41;;;;;;;29.80;17.30;;;;;;;-1.99;86.44;97504.61;226125;1274;22542;-82
2023/12/02 15:21:01;;;;;;;30.20;19.20;;;;;;;-2.02;86.54;97484.48;226187;1273;22642;-81
2023/12/02 15:26:04;;;;;;;30.10;18.50;;;;;;;-2.03;86.61;97501.89;225994;1270;22610;-82
2023/12/02 15:31:12;;;;;;;31.90;19.20;;;;;;;-2.06;86.83;97459.64;226086;1272;22712;-82
2023/12/02 15:36:16;;;;;;;38.20;22.20;;;;;;;-2.08;86.64;97486.49;226171;1273;25317;-81
2023/12/02 15:41:19;;;;;;;38.80;23.30;;;;;;;-2.13;86.67;97494.98;226112;1273;22660;-81
2023/12/02 15:46:22;;;;;;;36.80;22.90;;;;;;;-2.15;86.57;97528.45;226102;1273;24219;-81
2023/12/02 15:51:28;;;;;;;39.00;24.80;;;;;;;-2.13;86.73;97564.50;226120;1275;22565;-81
2023/12/02 15:56:31;;;;;;;40.60;24.50;;;;;;;-2.10;86.99;97583.95;226227;1275;22605;-81
2023/12/02 16:01:45;;;;;;;46.70;29.00;;;;;;;-2.09;86.63;97533.65;226105;1276;22551;-81
2023/12/02 16:06:47;;;;;;;50.70;29.30;;;;;;;-2.11;86.34;97561.08;226267;1273;22663;-81
2023/12/02 16:11:52;;;;;;;54.60;31.40;;;;;;;-2.12;86.54;97558.75;226048;1276;22544;-80
2023/12/02 16:16:56;;;;;;;58.50;33.90;;;;;;;-2.11;86.81;97590.45;226045;1276;22530;-81
2023/12/02 16:21:59;;;;;;;58.90;33.50;;;;;;;-2.14;86.69;97610.49;226176;1273;22582;-81
2023/12/02 16:27:01;;;;;;;64.60;36.40;;;;;;;-2.15;86.90;97606.63;226214;1273;22563;-81
2023/12/02 16:32:04;;;;;;;67.40;37.10;;;;;;;-2.15;86.94;97589.36;226076;1275;22659;-81
2023/12/02 16:37:07;;;;;;;71.50;38.80;;;;;;;-2.15;86.96;97554.53;226167;1275;22547;-80
2023/12/02 16:42:09;;;;;;;70.40;38.80;;;;;;;-2.16;87.07;97533.19;226132;1273;27028;-81
2023/12/02 16:47:46;;;;;;;69.30;39.90;;;;;;;-2.18;86.95;97593.72;226047;1267;22558;-81
2023/12/02 16:52:56;;;;;;;67.80;37.20;;;;;;;-2.18;87.29;97581.30;226147;1275;22539;-80
2023/12/02 16:58:00;;;;;;;68.50;36.10;;;;;;;-2.21;87.18;97534.58;226153;1275;22549;-80
2023/12/02 17:03:08;;;;;;;64.10;36.60;;;;;;;-2.26;87.07;97502.04;226093;1275;22554;-81
2023/12/02 17:08:27;;;;;;;72.50;39.60;;;;;;;-2.31;86.97;97574.62;226255;1253;22810;-81
2023/12/02 17:13:35;;;;;;;68.10;34.50;;;;;;;-2.35;86.88;97659.98;226216;1275;22568;-81
2023/12/02 17:18:47;;;;;;;61.30;31.30;;;;;;;-2.37;87.44;97729.42;226212;1275;25669;-80
2023/12/02 17:23:54;;;;;;;59.30;31.80;;;;;;;-2.37;87.25;97741.84;226067;1275;24290;-80
2023/12/02 17:28:57;;;;;;;55.80;29.90;;;;;;;-2.38;87.45;97709.20;226116;1275;22619;-80
2023/12/02 17:33:59;;;;;;;61.70;30.50;;;;;;;-2.40;86.91;97695.44;226149;1269;22617;-80
2023/12/02 17:39:02;;;;;;;58.80;30.30;;;;;;;-2.42;87.38;97665.95;226088;1269;22649;-80
2023/12/02 17:44:05;;;;;;;55.30;28.30;;;;;;;-2.44;87.69;97647.68;226096;1269;26193;-80
2023/12/02 17:49:07;;;;;;;55.90;28.60;;;;;;;-2.49;88.07;97660.79;226068;1273;25531;-79
2023/12/02 17:54:10;;;;;;;62.50;30.80;;;;;;;-2.52;87.67;97677.25;226119;1269;22595;-80
2023/12/02 17:59:13;;;;;;;60.40;29.40;;;;;;;-2.53;88.06;97703.29;226213;1265;22619;-80
2023/12/02 18:04:16;;;;;;;61.20;29.20;;;;;;;-2.55;88.35;97721.86;226320;1257;22559;-82
2023/12/02 18:09:19;;;;;;;63.50;29.20;;;;;;;-2.55;88.75;97741.54;226085;1273;22545;-80
2023/12/02 18:14:22;;;;;;;59.60;30.60;;;;;;;-2.57;88.40;97754.65;226071;1275;22638;-81
2023/12/02 18:19:24;;;;;;;63.50;29.80;;;;;;;-2.59;89.19;97768.43;226119;1264;22575;-81
2023/12/02 18:24:27;;;;;;;67.60;30.00;;;;;;;-2.61;89.75;97773.70;226116;1273;22581;-81
2023/12/02 18:29:29;;;;;;;61.90;30.40;;;;;;;-2.63;90.03;97787.52;226133;1273;22592;-81
2023/12/02 18:34:32;;;;;;;69.50;30.00;;;;;;;-2.63;89.78;97793.37;226183;1272;25645;-82
2023/12/02 18:39:34;;;;;;;63.20;28.30;;;;;;;-2.63;89.86;97805.64;226219;1275;22723;-81
2023/12/02 18:44:38;;;;;;;63.50;28.30;;;;;;;-2.63;89.82;97816.83;226059;1271;22699;-80
2023/12/02 18:49:40;;;;;;;62.20;30.20;;;;;;;-2.63;89.76;97826.98;226131;1274;25569;-81
2023/12/02 18:54:42;;;;;;;55.60;25.20;;;;;;;-2.63;89.54;97831.65;226208;1275;22542;-80
2023/12/02 18:59:44;;;;;;;58.20;26.10;;;;;;;-2.63;89.67;97834.05;226136;1270;22563;-80
2023/12/02 19:04:46;;;;;;;54.30;25.20;;;;;;;-2.63;90.00;97849.45;226013;1275;22536;-81
2023/12/02 19:09:48;;;;;;;54.10;23.60;;;;;;;-2.65;90.27;97857.35;226118;1273;25285;-80
2023/12/02 19:14:50;;;;;;;58.00;26.30;;;;;;;-2.66;90.78;97865.16;225936;1275;22537;-81
2023/12/02 19:19:54;;;;;;;61.80;27.40;;;;;;;-2.67;90.66;97869.77;226100;1271;22646;-82
2023/12/02 19:24:57;;;;;;;68.20;30.20;;;;;;;-2.68;90.64;97876.19;226087;1273;22619;-80
2023/12/02 19:29:59;;;;;;;67.10;31.50;;;;;;;-2.69;90.22;97891.61;226147;1269;22527;-81
2023/12/02 19:35:02;;;;;;;78.00;33.20;;;;;;;-2.69;90.05;97904.23;225974;1275;22566;-81
2023/12/02 19:40:06;;;;;;;69.10;31.20;;;;;;;-2.70;90.28;97924.34;226244;1272;22593;-81
2023/12/02 19:45:10;;;;;;;65.40;30.20;;;;;;;-2.71;90.48;97936.24;226159;1269;23065;-81
2023/12/02 19:50:13;;;;;;;68.80;30.90;;;;;;;-2.71;90.21;97938.86;226146;1268;22739;-81
2023/12/02 19:55:16;;;;;;;68.00;30.80;;;;;;;-2.73;90.31;97947.60;226101;1275;22574;-81
2023/12/02 20:00:18;;;;;;;62.50;29.60;;;;;;;-2.73;90.68;97950.70;226149;1272;25606;-81
2023/12/02 20:05:20;;;;;;;71.70;33.90;;;;;;;-2.74;90.48;97959.78;226105;1275;22669;-80
2023/12/02 20:10:28;;;;;;;71.50;34.00;;;;;;;-2.75;89.93;97975.52;226295;1260;22801;-80
2023/12/02 20:15:30;;;;;;;71.90;33.90;;;;;;;-2.75;90.23;97981.07;226117;1273;22549;-81
2023/12/02 20:20:34;;;;;;;75.80;34.10;;;;;;;-2.77;90.07;97988.92;226290;1272;23029;-80
2023/12/02 20:25:36;;;;;;;73.20;33.30;;;;;;;-2.79;90.28;97991.52;226104;1272;22693;-79
2023/12/02 20:30:40;;;;;;;79.10;36.50;;;;;;;-2.81;90.96;97996.66;225904;1275;22550;-80
2023/12/02 20:35:42;;;;;;;89.20;41.70;;;;;;;-2.80;91.31;98007.09;226089;1275;22572;-80
2023/12/02 20:40:45;;;;;;;81.80;36.40;;;;;;;-2.79;90.81;98009.81;226130;1275;22568;-80
2023/12/02 20:45:47;;;;;;;85.80;38.10;;;;;;;-2.77;90.93;98018.80;226152;1273;25418;-79
2023/12/02 20:50:49;;;;;;;89.40;40.10;;;;;;;-2.78;90.91;98022.11;226052;1275;22714;-80
2023/12/02 20:55:51;;;;;;;82.90;37.90;;;;;;;-2.77;90.76;98028.23;226082;1275;22592;-79
2023/12/02 21:00:55;;;;;;;82.10;37.20;;;;;;;-2.75;90.82;98024.67;226115;1275;22593;-80
2023/12/02 21:05:57;;;;;;;73.20;34.70;;;;;;;-2.75;90.44;98037.58;226176;1269;25533;-80
2023/12/02 21:11:02;;;;;;;78.00;36.30;;;;;;;-2.75;90.25;98045.83;226110;1273;22600;-81
2023/12/02 21:16:04;;;;;;;78.90;35.60;;;;;;;-2.74;90.15;98060.94;226258;1275;22634;-79
2023/12/02 21:21:08;;;;;;;70.20;31.70;;;;;;;-2.74;89.87;98078.86;226020;1275;23963;-80
2023/12/02 21:26:12;;;;;;;72.30;34.10;;;;;;;-2.75;90.04;98093.39;226275;1272;22737;-80
2023/12/02 21:31:19;;;;;;;66.70;31.80;;;;;;;-2.75;90.51;98111.51;226070;1275;22711;-79
2023/12/02 21:36:22;;;;;;;73.50;34.60;;;;;;;-2.73;90.39;98121.54;226097;1275;23214;-80
2023/12/02 21:41:24;;;;;;;71.30;34.00;;;;;;;-2.72;90.27;98132.42;226110;1272;22515;-80
2023/12/02 21:46:29;;;;;;;74.90;34.60;;;;;;;-2.70;89.99;98134.85;226103;1275;23588;-79
2023/12/02 21:51:37;;;;;;;76.00;36.70;;;;;;;-2.69;89.60;98150.14;226343;1275;23201;-79
2023/12/02 21:56:44;;;;;;;80.60;37.70;;;;;;;-2.68;89.47;98160.05;226043;1275;22547;-80
2023/12/02 22:01:49;;;;;;;81.00;38.90;;;;;;;-2.67;89.38;98172.67;226222;1272;22662;-80
2023/12/02 22:06:57;;;;;;;83.40;37.70;;;;;;;-2.67;89.57;98184.60;226248;1275;22534;-79
2023/12/02 22:12:03;;;;;;;77.00;39.70;;;;;;;-2.67;89.45;98188.35;226305;1272;22577;-79
2023/12/02 22:17:06;;;;;;;81.20;41.30;;;;;;;-2.65;89.46;98194.62;226057;1275;22799;-79
2023/12/02 22:22:46;;;;;;;77.60;38.60;;;;;;;-2.64;89.30;98198.87;226123;1273;22646;-79
2023/12/02 22:27:56;;;;;;;75.10;37.70;;;;;;;-2.64;88.85;98211.29;226204;1272;22811;-80
2023/12/02 22:33:00;;;;;;;68.80;35.70;;;;;;;-2.64;89.01;98218.29;226124;1275;22589;-80
2023/12/02 22:38:04;;;;;;;64.80;34.00;;;;;;;-2.64;89.08;98220.88;226176;1273;22580;-79
2023/12/02 22:43:22;;;;;;;69.30;35.20;;;;;;;-2.64;88.88;98231.45;226113;1275;22974;-80
2023/12/02 22:48:42;;;;;;;56.20;32.60;;;;;;;-2.66;89.00;98238.45;226041;1275;22590;-77
2023/12/02 22:53:45;;;;;;;58.40;31.30;;;;;;;-2.69;88.77;98250.95;226193;1273;22683;-80
2023/12/02 22:58:49;;;;;;;54.30;30.20;;;;;;;-2.72;88.69;98259.81;226086;1275;22595;-80
2023/12/02 23:03:52;;;;;;;55.00;30.10;;;;;;;-2.75;88.59;98270.56;226161;1275;22588;-80
2023/12/02 23:08:56;;;;;;;50.40;27.70;;;;;;;-2.78;88.80;98281.44;226166;1275;24274;-80
2023/12/02 23:14:01;;;;;;;51.50;27.40;;;;;;;-2.81;88.44;98287.94;226095;1273;22601;-80